Time;durP1;ratioP1;P1;durP2;ratioP2;P2;SDS_P1;SDS_P2;PMS_P1;PMS_P2;Temp;Humidity;BMP_temperature;BMP_pressure;BME280_temperature;BME280_humidity;BME280_pressure;Samples;Min_cycle;Max_cycle;Signal;HPM_P1;HPM_P2
2021/09/03 19:56:12;;;;;;;39.05;7.15;;;487.00;1638.40;;;;;;5069746;28;20413;-65
2021/09/03 19:58:37;;;;;;;27.48;6.78;;;486.80;1612.80;;;;;;5067491;28;20474;-71
2021/09/03 20:01:03;;;;;;;14.52;6.15;;;486.80;1612.80;;;;;;5070163;28;20031;-70
2021/09/03 20:03:29;;;;;;;17.05;5.55;;;486.80;1612.80;;;;;;5070758;28;20035;-70
2021/09/03 20:05:55;;;;;;;21.17;6.45;;;486.80;1612.80;;;;;;5068391;28;20379;-71
2021/09/03 20:08:20;;;;;;;18.33;7.00;;;486.80;1612.80;;;;;;5070596;28;20088;-68
2021/09/03 20:10:48;;;;;;;10.98;6.03;;;486.90;1612.80;;;;;;5070586;28;20023;-70
2021/09/03 20:13:14;;;;;;;12.00;5.78;;;486.90;1587.20;;;;;;5070709;28;20028;-70
2021/09/03 20:15:39;;;;;;;15.45;6.32;;;487.00;1587.20;;;;;;5070335;28;20441;-70
2021/09/03 20:18:05;;;;;;;13.88;6.70;;;487.00;1587.20;;;;;;5069093;28;20041;-65
2021/09/03 20:20:31;;;;;;;12.18;6.45;;;487.10;1561.60;;;;;;5070295;28;20478;-70
2021/09/03 20:22:57;;;;;;;10.10;6.15;;;486.90;1561.60;;;;;;5070538;28;20020;-68
2021/09/03 20:25:23;;;;;;;13.45;6.43;;;486.90;1561.60;;;;;;5070136;28;20467;-69
2021/09/03 20:27:49;;;;;;;11.38;6.00;;;487.00;1561.60;;;;;;5070383;28;20044;-69
2021/09/03 20:30:16;;;;;;;9.93;6.50;;;486.90;1561.60;;;;;;5068914;28;20036;-69
2021/09/03 20:32:41;;;;;;;11.45;6.13;;;486.90;1561.60;;;;;;5069860;28;20382;-69
2021/09/03 20:35:08;;;;;;;12.68;6.00;;;487.00;1561.60;;;;;;5069993;28;20036;-69
2021/09/03 20:37:33;;;;;;;11.25;5.93;;;487.00;1536.00;;;;;;5068810;28;20044;-70
2021/09/03 20:39:59;;;;;;;9.30;5.38;;;487.00;1536.00;;;;;;5070024;28;20029;-69
2021/09/03 20:42:25;;;;;;;11.68;6.65;;;487.00;1536.00;;;;;;5069721;28;20021;-69
2021/09/03 20:44:51;;;;;;;18.85;8.05;;;487.00;1561.60;;;;;;5070371;28;20475;-69
2021/09/03 20:47:17;;;;;;;18.30;8.88;;;487.00;1536.00;;;;;;5069819;28;20032;-69
2021/09/03 20:49:42;;;;;;;23.42;11.45;;;487.10;1536.00;;;;;;5069717;28;20035;-65
2021/09/03 20:52:08;;;;;;;19.85;11.52;;;487.10;1536.00;;;;;;5068312;28;20020;-67
2021/09/03 20:54:34;;;;;;;20.42;9.88;;;487.10;1536.00;;;;;;5068243;28;20131;-67
2021/09/03 20:57:01;;;;;;;16.10;9.20;;;487.00;1510.40;;;;;;5068084;28;20017;-67
2021/09/03 20:59:26;;;;;;;12.43;7.57;;;487.10;1510.40;;;;;;5068187;28;20083;-69
2021/09/03 21:01:52;;;;;;;14.93;7.53;;;487.10;1484.80;;;;;;5068228;28;20025;-67
2021/09/03 21:04:18;;;;;;;12.73;6.85;;;487.10;1484.80;;;;;;5067810;28;20033;-67
2021/09/03 21:06:43;;;;;;;11.25;6.15;;;487.10;1484.80;;;;;;5058960;28;20021;-67
2021/09/03 21:09:09;;;;;;;9.80;6.05;;;487.10;1459.20;;;;;;5053286;28;20479;-69
2021/09/03 21:11:35;;;;;;;9.18;5.90;;;487.10;1459.20;;;;;;5054937;28;20017;-67
2021/09/03 21:14:00;;;;;;;12.90;6.25;;;487.10;1459.20;;;;;;5052948;28;20029;-71
2021/09/03 21:16:26;;;;;;;10.60;5.40;;;487.10;1433.60;;;;;;5055079;28;20051;-70
2021/09/03 21:18:52;;;;;;;7.15;5.28;;;487.10;1459.20;;;;;;5055247;28;20375;-70
2021/09/03 21:21:20;;;;;;;10.48;5.50;;;487.10;1433.60;;;;;;5054815;28;20025;-69
2021/09/03 21:23:45;;;;;;;11.00;5.47;;;487.10;1459.20;;;;;;5054782;28;20450;-69
2021/09/03 21:26:11;;;;;;;7.47;5.93;;;487.10;1459.20;;;;;;5054942;28;20033;-63
2021/09/03 21:28:37;;;;;;;8.45;5.22;;;487.10;1459.20;;;;;;5054718;28;20025;-63
2021/09/03 21:31:03;;;;;;;9.77;5.70;;;487.00;1459.20;;;;;;5054694;28;20029;-69
2021/09/03 21:33:28;;;;;;;10.45;5.88;;;487.00;1459.20;;;;;;5054381;28;20112;-61
2021/09/03 21:35:54;;;;;;;7.85;5.43;;;487.00;1459.20;;;;;;5054033;28;20116;-63
2021/09/03 21:38:20;;;;;;;10.27;5.50;;;487.00;1459.20;;;;;;5054593;28;20017;-65
2021/09/03 21:40:46;;;;;;;6.03;4.55;;;487.00;1459.20;;;;;;5054442;28;20021;-62
2021/09/03 21:43:12;;;;;;;6.68;4.68;;;487.00;1459.20;;;;;;5054386;28;20058;-62
2021/09/03 21:45:37;;;;;;;7.10;5.10;;;487.00;1459.20;;;;;;5054481;28;20017;-69
2021/09/03 21:48:03;;;;;;;15.18;5.35;;;487.00;1459.20;;;;;;5054519;28;20037;-66
2021/09/03 21:50:29;;;;;;;7.68;5.20;;;487.00;1459.20;;;;;;5054269;28;20017;-64
2021/09/03 21:52:55;;;;;;;10.52;5.35;;;487.00;1459.20;;;;;;5053101;28;20040;-69
2021/09/03 21:55:20;;;;;;;9.00;4.90;;;486.90;1459.20;;;;;;5054177;28;20128;-71
2021/09/03 21:57:46;;;;;;;11.93;5.65;;;486.90;1459.20;;;;;;5054954;28;20060;-65
2021/09/03 22:00:17;;;;;;;12.35;6.40;;;486.90;1459.20;;;;;;5053726;28;20437;-63
2021/09/03 22:02:43;;;;;;;11.13;5.00;;;486.90;1484.80;;;;;;5054868;28;20024;-66
2021/09/03 22:05:09;;;;;;;10.98;4.55;;;486.80;1459.20;;;;;;5055313;28;20021;-69
2021/09/03 22:07:34;;;;;;;7.45;5.13;;;486.80;1484.80;;;;;;5054380;28;20025;-69
2021/09/03 22:10:01;;;;;;;6.07;4.32;;;486.80;1484.80;;;;;;5054596;28;20378;-69
2021/09/03 22:12:26;;;;;;;8.57;4.80;;;486.80;1484.80;;;;;;5054832;28;20470;-65
2021/09/03 22:14:52;;;;;;;12.27;4.82;;;486.80;1484.80;;;;;;5054357;28;20029;-69
2021/09/03 22:17:18;;;;;;;10.60;5.25;;;486.80;1484.80;;;;;;5054253;28;20024;-69
2021/09/03 22:19:43;;;;;;;10.93;5.78;;;486.70;1484.80;;;;;;5053660;28;20486;-62
2021/09/03 22:22:09;;;;;;;12.02;4.60;;;486.70;1484.80;;;;;;5053607;28;20100;-69
2021/09/03 22:24:35;;;;;;;7.15;4.78;;;486.70;1484.80;;;;;;5053666;28;20021;-70
2021/09/03 22:27:01;;;;;;;8.40;4.70;;;486.60;1484.80;;;;;;5053299;28;20087;-69
2021/09/03 22:29:26;;;;;;;7.68;4.45;;;486.60;1484.80;;;;;;5054327;28;20036;-68
2021/09/03 22:31:52;;;;;;;9.98;4.85;;;486.60;1484.80;;;;;;5053701;28;20096;-70
2021/09/03 22:34:18;;;;;;;8.38;4.63;;;486.60;1484.80;;;;;;5054671;28;20025;-70
2021/09/03 22:36:43;;;;;;;8.57;5.28;;;486.60;1484.80;;;;;;5055158;28;20033;-69
2021/09/03 22:39:09;;;;;;;5.75;4.35;;;486.60;1484.80;;;;;;5054989;28;20025;-69
2021/09/03 22:41:35;;;;;;;8.32;4.88;;;486.50;1484.80;;;;;;5054145;28;20036;-70
2021/09/03 22:44:00;;;;;;;13.52;5.07;;;486.50;1510.40;;;;;;5054675;28;20045;-68
2021/09/03 22:46:26;;;;;;;7.90;5.10;;;486.50;1484.80;;;;;;5054862;28;20166;-70
2021/09/03 22:48:52;;;;;;;13.02;5.13;;;486.50;1510.40;;;;;;5054125;28;20028;-69
2021/09/03 22:51:17;;;;;;;5.68;4.70;;;486.50;1510.40;;;;;;5054561;28;20243;-69
2021/09/03 22:53:43;;;;;;;15.07;5.57;;;486.50;1510.40;;;;;;5054438;28;20482;-69
2021/09/03 22:56:09;;;;;;;14.30;5.13;;;486.50;1510.40;;;;;;5054631;28;20037;-69
2021/09/03 22:58:34;;;;;;;8.10;5.47;;;486.50;1510.40;;;;;;5054437;28;20110;-69
2021/09/03 23:01:00;;;;;;;9.43;5.28;;;486.50;1536.00;;;;;;5054665;28;20029;-69
2021/09/03 23:03:26;;;;;;;8.02;5.30;;;486.40;1536.00;;;;;;5053783;28;20529;-69
2021/09/03 23:05:53;;;;;;;9.77;6.18;;;486.40;1536.00;;;;;;5052920;28;20044;-68
2021/09/03 23:08:19;;;;;;;9.57;5.78;;;461.70;1536.00;;;;;;5054277;28;20123;-69
2021/09/03 23:10:45;;;;;;;7.72;6.15;;;461.70;1536.00;;;;;;5054159;28;20578;-68
2021/09/03 23:13:10;;;;;;;9.50;5.85;;;461.70;1561.60;;;;;;5054254;28;20120;-69
2021/09/03 23:15:36;;;;;;;11.20;5.97;;;461.60;1561.60;;;;;;5054344;28;20028;-69
2021/09/03 23:18:02;;;;;;;9.60;6.07;;;461.60;1561.60;;;;;;5054184;28;20124;-69
2021/09/03 23:20:27;;;;;;;16.08;6.22;;;461.60;1561.60;;;;;;5054135;28;20044;-70
2021/09/03 23:22:53;;;;;;;14.07;6.65;;;461.60;1536.00;;;;;;5052816;28;20374;-69
2021/09/03 23:25:19;;;;;;;9.63;6.15;;;461.60;1536.00;;;;;;5054205;28;20029;-68
2021/09/03 23:27:45;;;;;;;12.20;6.20;;;461.50;1536.00;;;;;;5053558;28;20470;-69
2021/09/03 23:30:11;;;;;;;9.43;6.30;;;461.50;1536.00;;;;;;5053715;28;20056;-68
2021/09/03 23:32:37;;;;;;;12.02;6.07;;;461.50;1561.60;;;;;;5053670;28;20025;-69
2021/09/03 23:35:03;;;;;;;9.45;5.57;;;461.40;1561.60;;;;;;5053785;28;20044;-69
2021/09/03 23:37:29;;;;;;;9.07;5.97;;;461.30;1561.60;;;;;;5054324;28;20029;-69
2021/09/03 23:39:55;;;;;;;10.75;6.22;;;461.30;1587.20;;;;;;5053966;28;20029;-69
2021/09/03 23:42:20;;;;;;;11.73;7.05;;;461.20;1587.20;;;;;;5053880;28;20021;-69
2021/09/03 23:44:46;;;;;;;12.68;6.38;;;461.20;1587.20;;;;;;5052142;28;20482;-68
2021/09/03 23:47:12;;;;;;;9.70;5.85;;;461.20;1587.20;;;;;;5053734;28;20036;-69
2021/09/03 23:49:37;;;;;;;8.50;6.10;;;461.20;1587.20;;;;;;5053618;28;20032;-68
2021/09/03 23:52:04;;;;;;;12.80;6.20;;;461.10;1587.20;;;;;;5053619;28;20033;-68
2021/09/03 23:54:30;;;;;;;9.20;6.20;;;461.10;1612.80;;;;;;5053506;28;20049;-69
2021/09/03 23:56:56;;;;;;;11.18;6.35;;;461.10;1612.80;;;;;;5052007;28;20501;-69
2021/09/03 23:59:21;;;;;;;10.68;6.25;;;461.00;1612.80;;;;;;5053761;28;20111;-69
